Portada
METAR-TAF:

METAR-TAF

Aeropuertos :

Aeropuerto Internacional Bonriki

Tarawa, Kiribati

latitud: 01-21N, longitud: 172-55E, altitud: 2 m

Observación

El informe se hizo hace 2 horas y 48 minutos, a las 07:00 UTC
Viento 3 kt con dirección variable
Temperatura 27°C
Humedad 79%
Presión 1013 hPa
Visibilidad 10 km o más
Escasas nubes a una altura de 2000 ft

METAR: NGTA 200700Z VRB03KT 9999 FEW020 27/23 Q1013

Hora: 23:48 (09:48 UTC)

Pronóstico

El informe se hizo hace 4 horas y 39 minutos, a las 05:09 UTC
Pronóstico válido del 20 a las 06 UTC al 21 a las 06 UTC
Viento 7 kt del este-sureste
Visibilidad 10 km o más
Escasas nubes a una altura de 1900 ft
Nubes dispersas a una altura de 10000 ft

TAF: NGTA 200509Z 2006/2106 12007KT 9999 FEW019 SCT100

Observaciones y pronósticos meteorológicos de más de 4000 aeropuertos (mensajes METAR y TAF).

Los puntos amarillos y rojos representan las estaciones disponibles.

Ponga el ratón en el punto deseado para ver el nombre de la estación.

Haga clic para ver las observaciones y los pronósticos meteorológicos.

Para cambiar el mapa : haga clic en los botones verdes con una cruz de color negro para hacer un zoom, en el botón verde con un guión para alejar o en las flechas verdes para mapas adyacentes.


METAR-TAF: